Time;durP1;ratioP1;P1;durP2;ratioP2;P2;SDS_P1;SDS_P2;PMS_P1;PMS_P2;Temp;Humidity;BMP_temperature;BMP_pressure;BME280_temperature;BME280_humidity;BME280_pressure;Samples;Min_cycle;Max_cycle;Signal;HPM_P1;HPM_P2
2021/12/03 00:01:08;;;;;;;4.13;2.20;;;3.30;99.30;;;;;;5023621;28;20374;-85
2021/12/03 00:03:35;;;;;;;4.40;1.70;;;3.30;99.20;;;;;;5026841;28;20024;-90
2021/12/03 00:06:01;;;;;;;2.53;1.47;;;3.30;99.20;;;;;;5035370;28;20028;-86
2021/12/03 00:08:27;;;;;;;6.30;1.73;;;3.30;99.30;;;;;;5035048;28;20358;-85
2021/12/03 00:10:56;;;;;;;4.30;1.90;;;3.30;99.30;;;;;;5017555;28;20037;-89
2021/12/03 00:13:23;;;;;;;5.80;1.90;;;3.30;99.30;;;;;;5020791;28;20144;-88
2021/12/03 00:15:50;;;;;;;2.50;1.47;;;3.30;99.30;;;;;;5023075;28;20026;-85
2021/12/03 00:18:16;;;;;;;4.03;1.87;;;3.30;99.30;;;;;;5014396;28;20026;-84
2021/12/03 00:20:41;;;;;;;4.77;1.63;;;3.30;99.20;;;;;;5017021;28;20078;-83
2021/12/03 00:23:08;;;;;;;3.63;1.87;;;3.30;99.30;;;;;;5004529;28;20030;-85
2021/12/03 00:25:35;;;;;;;6.70;2.47;;;3.30;99.30;;;;;;5009730;28;20015;-85
2021/12/03 00:28:02;;;;;;;4.43;1.80;;;3.30;99.40;;;;;;5006131;28;20520;-83
2021/12/03 00:30:28;;;;;;;4.87;1.80;;;3.30;99.50;;;;;;5021464;28;20096;-82
2021/12/03 00:32:54;;;;;;;6.23;2.20;;;3.30;99.60;;;;;;5012343;28;20447;-86
2021/12/03 00:35:20;;;;;;;7.13;2.40;;;3.20;99.70;;;;;;5010675;28;20101;-84
2021/12/03 00:37:48;;;;;;;8.03;2.10;;;3.20;99.80;;;;;;5017921;28;20048;-85
2021/12/03 00:40:21;;;;;;;4.90;2.53;;;3.20;99.80;;;;;;5008583;28;20026;-82
2021/12/03 00:42:47;;;;;;;5.27;2.20;;;3.20;99.80;;;;;;5012787;28;20030;-80
2021/12/03 00:45:14;;;;;;;3.97;2.07;;;3.20;99.80;;;;;;5014314;28;20013;-80
2021/12/03 00:47:41;;;;;;;3.23;1.93;;;3.20;99.70;;;;;;5023048;28;20034;-82
2021/12/03 00:50:09;;;;;;;3.80;2.10;;;3.10;99.80;;;;;;5002499;28;20224;-80
2021/12/03 00:52:36;;;;;;;3.90;1.93;;;3.20;99.70;;;;;;5011041;28;20025;-84
2021/12/03 00:55:04;;;;;;;4.10;2.40;;;3.20;99.70;;;;;;5012161;28;20105;-83
2021/12/03 00:57:30;;;;;;;4.57;2.10;;;3.20;99.60;;;;;;5009670;28;20045;-82
2021/12/03 00:59:56;;;;;;;5.03;2.23;;;3.30;99.50;;;;;;5021516;28;20029;-84
2021/12/03 01:02:22;;;;;;;4.67;2.37;;;3.30;99.40;;;;;;5011830;28;20022;-87
2021/12/03 01:04:47;;;;;;;5.17;2.30;;;3.20;99.40;;;;;;5015578;28;20160;-84
2021/12/03 01:07:14;;;;;;;5.47;2.37;;;3.30;99.50;;;;;;5015994;28;20021;-84
2021/12/03 01:09:40;;;;;;;3.80;2.40;;;3.30;99.40;;;;;;5013314;28;20053;-86
2021/12/03 01:12:06;;;;;;;5.37;2.53;;;3.30;99.30;;;;;;5009131;28;20384;-84
2021/12/03 01:14:32;;;;;;;6.57;2.50;;;3.30;99.30;;;;;;5013718;28;20014;-85
2021/12/03 01:16:58;;;;;;;5.50;2.30;;;3.30;99.10;;;;;;5014124;28;20510;-84
2021/12/03 01:19:24;;;;;;;5.93;2.30;;;3.20;98.90;;;;;;5020049;28;20064;-82
2021/12/03 01:21:49;;;;;;;6.77;2.30;;;3.20;98.90;;;;;;5008932;28;20022;-86
2021/12/03 01:24:15;;;;;;;5.70;2.57;;;3.10;99.20;;;;;;5009978;28;20068;-82
2021/12/03 01:26:43;;;;;;;9.67;3.07;;;3.10;99.60;;;;;;5015030;28;20108;-84
2021/12/03 01:29:09;;;;;;;5.67;2.97;;;3.10;99.90;;;;;;5018890;28;20049;-84
2021/12/03 01:31:35;;;;;;;6.53;2.70;;;3.10;99.90;;;;;;5020924;28;20443;-81
2021/12/03 01:34:00;;;;;;;7.17;2.63;;;3.10;99.90;;;;;;5016917;28;20028;-83
2021/12/03 01:36:26;;;;;;;7.40;2.80;;;3.00;99.90;;;;;;5019598;28;20033;-83
2021/12/03 01:38:52;;;;;;;7.83;3.00;;;3.00;99.90;;;;;;5018638;28;20030;-86
2021/12/03 01:41:17;;;;;;;5.87;2.73;;;3.00;99.90;;;;;;5018469;28;20021;-83
2021/12/03 01:43:44;;;;;;;5.47;2.90;;;2.90;99.90;;;;;;5018460;28;20034;-81
2021/12/03 01:46:12;;;;;;;6.97;2.80;;;2.80;99.90;;;;;;5006698;28;20034;-81
2021/12/03 01:48:39;;;;;;;6.50;3.47;;;2.80;99.90;;;;;;5020145;28;20025;-83
2021/12/03 01:51:05;;;;;;;9.30;3.23;;;2.80;99.90;;;;;;5009878;28;20022;-82
2021/12/03 01:53:38;;;;;;;5.90;2.80;;;2.70;99.90;;;;;;5013502;28;20025;-84
2021/12/03 01:56:16;;;;;;;5.03;2.77;;;2.70;99.90;;;;;;5029765;28;20485;-83
2021/12/03 01:58:43;;;;;;;7.07;3.83;;;2.70;99.90;;;;;;5025430;28;20048;-82
2021/12/03 02:01:12;;;;;;;6.57;3.60;;;2.70;99.90;;;;;;5006224;28;20077;-83
2021/12/03 02:03:41;;;;;;;5.83;3.20;;;2.60;99.90;;;;;;5015752;28;20116;-87
2021/12/03 02:06:11;;;;;;;9.43;3.80;;;2.60;99.90;;;;;;5023284;28;20374;-92
2021/12/03 02:08:38;;;;;;;7.07;3.60;;;2.50;99.90;;;;;;5018264;28;20026;-90
2021/12/03 02:11:06;;;;;;;9.60;3.80;;;2.50;99.90;;;;;;5031888;28;20025;-86
2021/12/03 02:13:33;;;;;;;7.77;3.77;;;2.50;99.90;;;;;;5027442;28;20022;-84
2021/12/03 02:15:59;;;;;;;9.03;4.10;;;2.50;99.90;;;;;;5021883;28;20083;-83
2021/12/03 02:18:25;;;;;;;7.30;3.63;;;2.50;99.90;;;;;;5020681;28;20520;-83
2021/12/03 02:20:52;;;;;;;8.07;4.03;;;2.40;99.90;;;;;;5030141;28;20018;-84
2021/12/03 02:23:20;;;;;;;10.30;3.63;;;2.40;99.90;;;;;;5001306;28;20024;-83
2021/12/03 02:25:47;;;;;;;9.93;4.20;;;2.30;99.90;;;;;;5025965;28;20095;-83
2021/12/03 02:28:15;;;;;;;8.90;4.10;;;2.30;99.90;;;;;;5023468;28;20185;-83
2021/12/03 02:30:43;;;;;;;6.07;3.80;;;2.30;99.90;;;;;;5017139;28;20028;-85
2021/12/03 02:33:09;;;;;;;7.43;3.43;;;2.20;99.90;;;;;;5028527;28;20018;-83
2021/12/03 02:35:38;;;;;;;9.00;4.50;;;2.20;99.90;;;;;;5020158;28;20365;-82
2021/12/03 02:38:03;;;;;;;7.57;3.60;;;2.20;99.90;;;;;;5023603;28;20021;-84
2021/12/03 02:40:29;;;;;;;7.83;4.10;;;2.10;99.90;;;;;;5026144;28;20093;-83
2021/12/03 02:42:55;;;;;;;10.97;4.13;;;2.10;99.90;;;;;;5016011;28;20026;-84
2021/12/03 02:45:21;;;;;;;10.03;4.70;;;2.10;99.90;;;;;;5030303;28;20094;-83
2021/12/03 02:47:47;;;;;;;9.47;4.37;;;2.00;99.90;;;;;;5020277;28;20025;-84
2021/12/03 02:50:13;;;;;;;9.90;4.47;;;2.00;99.90;;;;;;5021796;28;20165;-83
2021/12/03 02:52:41;;;;;;;10.17;4.47;;;2.00;99.90;;;;;;5028957;28;20051;-84
2021/12/03 02:55:07;;;;;;;9.30;4.70;;;2.00;99.90;;;;;;5015143;28;20025;-84
2021/12/03 02:57:33;;;;;;;9.13;4.40;;;2.00;99.90;;;;;;5018271;28;20021;-83
2021/12/03 02:59:59;;;;;;;9.60;4.10;;;1.90;99.90;;;;;;5023786;28;20033;-84
2021/12/03 03:02:24;;;;;;;10.37;4.33;;;1.90;99.90;;;;;;5027598;28;20378;-84
2021/12/03 03:04:51;;;;;;;10.23;4.10;;;1.90;99.90;;;;;;5018895;28;20065;-84
2021/12/03 03:07:17;;;;;;;10.17;4.87;;;1.80;99.90;;;;;;5030185;28;20021;-83
2021/12/03 03:09:44;;;;;;;11.40;4.90;;;1.80;99.90;;;;;;5022053;28;20072;-84
2021/12/03 03:12:12;;;;;;;10.87;4.97;;;1.80;99.90;;;;;;5021346;28;20026;-83
2021/12/03 03:14:53;;;;;;;8.53;4.13;;;1.80;99.90;;;;;;5027041;28;20036;-83
2021/12/03 03:17:21;;;;;;;8.93;4.07;;;1.80;99.90;;;;;;4999394;28;20104;-82
2021/12/03 03:19:48;;;;;;;8.00;4.33;;;1.80;99.90;;;;;;5033541;28;20030;-83
2021/12/03 03:22:14;;;;;;;11.53;4.53;;;1.70;99.90;;;;;;5021465;28;20406;-83
2021/12/03 03:24:40;;;;;;;7.90;4.30;;;1.70;99.90;;;;;;5028088;28;20026;-83
2021/12/03 03:27:07;;;;;;;9.03;3.90;;;1.70;99.90;;;;;;5016620;28;20117;-83
2021/12/03 03:29:33;;;;;;;9.67;4.27;;;1.60;99.90;;;;;;5026740;28;20018;-83
2021/12/03 03:32:00;;;;;;;13.07;4.10;;;1.60;99.90;;;;;;5020763;28;20018;-84
2021/12/03 03:34:25;;;;;;;9.57;4.30;;;1.60;99.90;;;;;;5020210;28;20443;-86
2021/12/03 03:36:52;;;;;;;11.40;4.73;;;1.60;99.90;;;;;;5029909;28;20029;-86
2021/12/03 03:39:19;;;;;;;10.20;4.40;;;1.50;99.90;;;;;;5016570;28;20029;-86
2021/12/03 03:41:46;;;;;;;12.07;4.53;;;1.50;99.90;;;;;;5027404;28;20352;-85
2021/12/03 03:44:15;;;;;;;12.03;4.93;;;1.50;99.90;;;;;;5024191;28;20088;-87
2021/12/03 03:46:42;;;;;;;11.47;4.67;;;1.50;99.90;;;;;;5018501;28;20044;-89
2021/12/03 03:49:08;;;;;;;12.80;5.83;;;1.50;99.90;;;;;;5029592;28;20052;-89
2021/12/03 03:51:35;;;;;;;11.87;5.13;;;1.40;99.90;;;;;;5019556;28;20025;-88
2021/12/03 03:54:01;;;;;;;9.70;5.10;;;1.40;99.90;;;;;;5003956;28;20017;-88
2021/12/03 03:56:27;;;;;;;15.07;5.30;;;1.40;99.90;;;;;;5032062;28;20022;-89
2021/12/03 03:58:53;;;;;;;11.20;5.10;;;1.40;99.90;;;;;;5024910;28;20080;-89
2021/12/03 04:01:19;;;;;;;11.03;5.53;;;1.40;99.90;;;;;;5022842;28;20022;-88
2021/12/03 04:03:46;;;;;;;13.80;5.57;;;1.30;99.90;;;;;;5031437;28;20437;-90
2021/12/03 04:06:16;;;;;;;14.20;5.83;;;1.30;99.90;;;;;;5019330;28;20025;-89
2021/12/03 04:08:45;;;;;;;11.77;5.63;;;1.30;99.90;;;;;;5027937;28;20022;-89
2021/12/03 04:11:12;;;;;;;9.77;5.20;;;1.30;99.90;;;;;;5029723;28;20025;-89
2021/12/03 04:13:37;;;;;;;12.63;5.10;;;1.30;99.90;;;;;;5020543;28;20026;-84
2021/12/03 04:16:04;;;;;;;13.27;5.43;;;1.30;99.90;;;;;;5031131;28;20030;-84
2021/12/03 04:18:29;;;;;;;12.53;6.00;;;1.30;99.90;;;;;;5024217;28;20500;-83
2021/12/03 04:20:55;;;;;;;12.93;6.30;;;1.20;99.90;;;;;;5022587;28;20025;-84
2021/12/03 04:23:21;;;;;;;12.60;5.80;;;1.30;99.90;;;;;;5022218;28;20365;-84
2021/12/03 04:25:48;;;;;;;13.17;5.03;;;1.20;99.90;;;;;;5025210;28;20100;-84
2021/12/03 04:28:14;;;;;;;10.13;5.23;;;1.20;99.90;;;;;;5029161;28;20052;-83
2021/12/03 04:30:41;;;;;;;11.50;5.10;;;1.20;99.90;;;;;;5023475;28;20017;-84
2021/12/03 04:33:07;;;;;;;12.43;5.67;;;1.20;99.90;;;;;;5023585;28;20021;-86
2021/12/03 04:35:33;;;;;;;16.40;6.60;;;1.20;99.90;;;;;;5023336;28;20018;-86
2021/12/03 04:37:59;;;;;;;12.53;5.80;;;1.20;99.90;;;;;;5018234;28;20080;-86
2021/12/03 04:40:26;;;;;;;11.90;5.57;;;1.20;99.90;;;;;;5017806;28;20033;-86
2021/12/03 04:42:53;;;;;;;16.13;6.07;;;1.20;99.90;;;;;;5013359;28;20451;-86
2021/12/03 04:45:21;;;;;;;16.20;6.33;;;1.20;99.90;;;;;;5005584;28;20175;-86
2021/12/03 04:47:48;;;;;;;11.27;5.40;;;1.20;99.90;;;;;;5025128;28;20722;-86
2021/12/03 04:50:15;;;;;;;14.83;6.03;;;1.10;99.90;;;;;;5014035;28;20358;-85
2021/12/03 04:52:41;;;;;;;14.43;5.97;;;1.10;99.90;;;;;;5008123;28;20019;-85
2021/12/03 04:55:09;;;;;;;16.20;6.67;;;1.10;99.90;;;;;;5013107;28;20018;-85
2021/12/03 04:57:35;;;;;;;14.10;6.67;;;1.10;99.90;;;;;;5012549;28;20057;-85
2021/12/03 05:00:03;;;;;;;20.50;6.50;;;1.10;99.90;;;;;;5015463;28;20401;-85
2021/12/03 05:02:28;;;;;;;17.27;7.27;;;1.10;99.90;;;;;;5013247;28;20030;-85
2021/12/03 05:04:59;;;;;;;16.97;6.97;;;1.10;99.90;;;;;;5014859;28;20029;-85
2021/12/03 05:07:31;;;;;;;17.90;6.60;;;1.00;99.90;;;;;;5023924;28;20025;-85
2021/12/03 05:09:57;;;;;;;15.77;6.55;;;1.00;99.90;;;;;;5013305;28;20485;-85
2021/12/03 05:12:24;;;;;;;18.73;6.90;;;1.10;99.90;;;;;;5016444;28;20137;-88
2021/12/03 05:14:50;;;;;;;14.33;6.00;;;1.00;99.90;;;;;;5011816;28;20018;-88
2021/12/03 05:17:16;;;;;;;14.30;6.33;;;1.00;99.90;;;;;;5001869;28;20061;-88
2021/12/03 05:19:41;;;;;;;15.97;5.87;;;1.00;99.90;;;;;;5002193;28;20463;-88
2021/12/03 05:22:07;;;;;;;15.67;6.60;;;0.90;99.90;;;;;;5003850;28;20372;-88
2021/12/03 05:24:32;;;;;;;16.30;6.53;;;1.00;99.90;;;;;;4994692;28;20033;-88
2021/12/03 05:26:58;;;;;;;15.33;6.23;;;1.00;99.90;;;;;;4995254;28;20030;-87
2021/12/03 05:29:25;;;;;;;12.63;5.70;;;1.00;99.90;;;;;;4995263;28;20025;-87
2021/12/03 05:31:51;;;;;;;17.13;6.97;;;1.00;99.90;;;;;;4994658;28;20451;-87
2021/12/03 05:34:16;;;;;;;13.07;6.53;;;0.90;99.90;;;;;;4994442;28;20018;-87
2021/12/03 05:36:46;;;;;;;15.10;6.37;;;0.90;99.90;;;;;;4995782;28;20030;-88
2021/12/03 05:39:12;;;;;;;15.37;6.90;;;0.90;99.90;;;;;;4994897;28;20030;-87
2021/12/03 05:41:38;;;;;;;15.63;6.37;;;0.90;99.90;;;;;;4994521;28;20034;-86
2021/12/03 05:44:05;;;;;;;16.57;6.03;;;0.90;99.90;;;;;;4995153;28;20033;-87
2021/12/03 05:46:31;;;;;;;12.10;5.93;;;0.90;99.90;;;;;;4994366;28;20121;-87
2021/12/03 05:48:57;;;;;;;15.37;5.90;;;0.90;99.90;;;;;;4994318;28;20023;-88
2021/12/03 05:51:25;;;;;;;14.17;6.10;;;0.80;99.90;;;;;;4993842;28;20033;-88
2021/12/03 05:53:51;;;;;;;13.70;5.80;;;0.80;99.90;;;;;;4994481;28;20471;-88
2021/12/03 05:56:17;;;;;;;14.97;6.70;;;0.80;99.90;;;;;;4993779;28;20030;-85
2021/12/03 05:58:42;;;;;;;14.07;6.40;;;0.80;99.90;;;;;;4994427;28;20030;-84
2021/12/03 06:01:08;;;;;;;14.73;6.27;;;0.80;99.90;;;;;;4993076;28;20399;-89
2021/12/03 06:03:34;;;;;;;12.90;6.50;;;0.80;99.90;;;;;;4993985;28;20072;-88
2021/12/03 06:06:00;;;;;;;16.00;7.43;;;0.80;99.90;;;;;;4995241;28;20030;-89
2021/12/03 06:08:25;;;;;;;13.03;5.70;;;0.80;99.90;;;;;;4993336;28;20085;-88
2021/12/03 06:10:51;;;;;;;17.47;6.80;;;0.70;99.90;;;;;;4994195;28;20035;-89
2021/12/03 06:13:17;;;;;;;14.37;6.73;;;0.70;99.90;;;;;;4993543;28;20053;-91
2021/12/03 06:15:42;;;;;;;17.60;6.60;;;0.70;99.90;;;;;;4993502;28;20480;-86
2021/12/03 06:18:08;;;;;;;15.10;6.63;;;0.70;99.90;;;;;;4993651;28;20028;-86
2021/12/03 06:20:34;;;;;;;16.07;6.70;;;0.70;99.90;;;;;;4995055;28;20364;-87
2021/12/03 06:22:59;;;;;;;14.57;6.90;;;0.70;99.90;;;;;;4994120;28;20019;-88
2021/12/03 06:25:25;;;;;;;12.30;6.23;;;0.60;99.90;;;;;;4993685;28;20022;-88
2021/12/03 06:27:54;;;;;;;13.03;5.73;;;0.60;99.90;;;;;;5010321;28;20026;-86
2021/12/03 06:30:20;;;;;;;14.37;5.87;;;0.60;99.90;;;;;;4993517;28;20033;-87
2021/12/03 06:32:46;;;;;;;14.40;5.97;;;0.60;99.90;;;;;;4993904;28;20024;-84
2021/12/03 06:35:15;;;;;;;11.90;5.63;;;0.60;99.90;;;;;;4993324;28;20113;-84
2021/12/03 06:37:41;;;;;;;13.47;6.67;;;0.60;99.90;;;;;;4993787;28;20026;-86
2021/12/03 06:40:10;;;;;;;14.40;6.03;;;0.60;99.90;;;;;;4994524;28;20053;-85
2021/12/03 06:42:36;;;;;;;12.57;5.77;;;0.60;99.90;;;;;;4993732;28;20117;-86
2021/12/03 06:45:05;;;;;;;11.83;6.07;;;0.60;99.90;;;;;;4993845;28;20125;-85
2021/12/03 06:47:31;;;;;;;11.80;5.40;;;0.60;99.90;;;;;;4993842;28;20026;-88
2021/12/03 06:49:57;;;;;;;11.83;5.73;;;0.60;99.90;;;;;;4993853;28;20022;-88
2021/12/03 06:52:24;;;;;;;15.17;6.17;;;0.60;99.90;;;;;;4993166;28;20032;-88
2021/12/03 06:54:57;;;;;;;12.40;5.40;;;0.70;99.90;;;;;;5003407;28;20026;-89
2021/12/03 06:57:23;;;;;;;12.50;5.10;;;0.70;99.90;;;;;;5004863;28;20032;-89
2021/12/03 06:59:48;;;;;;;9.13;4.40;;;0.70;99.90;;;;;;5003951;28;20509;-88
2021/12/03 07:02:14;;;;;;;11.73;5.10;;;0.70;99.90;;;;;;5003255;28;20034;-89
2021/12/03 07:04:42;;;;;;;10.90;4.57;;;0.80;99.90;;;;;;5006626;28;20067;-87
2021/12/03 07:07:08;;;;;;;11.50;4.70;;;0.80;99.90;;;;;;5003543;28;20034;-86
2021/12/03 07:09:33;;;;;;;7.60;4.10;;;0.90;99.90;;;;;;5003462;28;20172;-88
2021/12/03 07:12:00;;;;;;;12.20;4.40;;;0.90;99.90;;;;;;5002538;28;20042;-91
2021/12/03 07:14:26;;;;;;;8.63;3.83;;;0.90;99.90;;;;;;5003249;28;20023;-81
2021/12/03 07:16:52;;;;;;;9.80;4.27;;;1.00;99.90;;;;;;5006470;28;20052;-81
2021/12/03 07:19:17;;;;;;;8.60;4.10;;;1.00;99.90;;;;;;5009187;28;20026;-81
2021/12/03 07:21:43;;;;;;;11.87;4.83;;;1.10;99.90;;;;;;5007775;28;20021;-81
2021/12/03 07:24:08;;;;;;;10.73;4.17;;;1.10;99.90;;;;;;5004419;28;20118;-86
2021/12/03 07:26:34;;;;;;;10.97;4.47;;;1.20;99.90;;;;;;5007321;28;20026;-83
2021/12/03 07:29:00;;;;;;;9.60;3.90;;;1.20;99.90;;;;;;5008509;28;20044;-82
2021/12/03 07:31:26;;;;;;;6.90;3.60;;;1.20;99.90;;;;;;5005108;28;20076;-81
2021/12/03 07:33:54;;;;;;;11.13;4.73;;;1.30;99.90;;;;;;5006712;28;20019;-82
2021/12/03 07:36:20;;;;;;;8.57;3.97;;;1.30;99.90;;;;;;5008462;28;20686;-85
2021/12/03 07:38:46;;;;;;;13.40;4.10;;;1.40;99.90;;;;;;5003033;28;20045;-84
2021/12/03 07:41:12;;;;;;;7.40;3.77;;;1.50;99.90;;;;;;5005498;28;20459;-85
2021/12/03 07:43:38;;;;;;;6.43;3.60;;;1.50;99.90;;;;;;5007972;28;20030;-84
2021/12/03 07:46:03;;;;;;;7.70;3.60;;;1.50;99.90;;;;;;5001921;28;20053;-81
2021/12/03 07:48:29;;;;;;;9.23;2.83;;;1.50;99.90;;;;;;5002422;28;20347;-81
2021/12/03 07:50:57;;;;;;;7.80;2.80;;;1.60;99.90;;;;;;5000583;28;20029;-81
2021/12/03 07:53:23;;;;;;;7.50;2.50;;;1.60;99.90;;;;;;5002346;28;20026;-81
2021/12/03 07:55:50;;;;;;;8.55;2.35;;;1.70;99.90;;;;;;5007604;28;20058;-81
2021/12/03 07:58:17;;;;;;;6.63;2.77;;;1.70;99.90;;;;;;5003949;28;20041;-80
2021/12/03 08:00:44;;;;;;;6.10;2.93;;;1.80;99.90;;;;;;5006031;28;20022;-80
2021/12/03 08:03:10;;;;;;;4.73;2.77;;;1.80;99.90;;;;;;5003498;28;20081;-80
2021/12/03 08:05:36;;;;;;;8.83;3.00;;;1.80;99.90;;;;;;5003855;28;20015;-80
2021/12/03 08:08:02;;;;;;;7.50;2.90;;;1.80;99.90;;;;;;5003718;28;20030;-80
2021/12/03 08:10:28;;;;;;;5.43;3.00;;;1.90;99.90;;;;;;5001887;28;20062;-80
2021/12/03 08:12:54;;;;;;;8.13;3.27;;;1.90;99.90;;;;;;5006939;28;20034;-79
2021/12/03 08:15:21;;;;;;;9.13;3.33;;;2.00;99.90;;;;;;5004265;28;20110;-80
2021/12/03 08:17:49;;;;;;;6.00;3.53;;;2.00;99.90;;;;;;5006938;28;20030;-79
2021/12/03 08:20:16;;;;;;;6.53;3.30;;;2.00;99.90;;;;;;5011620;28;20022;-79
2021/12/03 08:22:42;;;;;;;8.20;2.73;;;2.10;99.90;;;;;;5015653;28;20021;-79
2021/12/03 08:25:09;;;;;;;5.60;2.80;;;2.20;99.90;;;;;;5015654;28;20442;-80
2021/12/03 08:27:35;;;;;;;7.93;2.70;;;2.20;99.90;;;;;;5013582;28;20494;-80
2021/12/03 08:30:00;;;;;;;8.33;3.17;;;2.20;99.90;;;;;;5015218;28;20018;-84
2021/12/03 08:32:26;;;;;;;4.37;2.53;;;2.20;99.90;;;;;;5015825;28;20033;-84
2021/12/03 08:34:52;;;;;;;7.17;2.87;;;2.20;99.90;;;;;;5015371;28;20049;-87
2021/12/03 08:37:18;;;;;;;6.07;2.73;;;2.30;99.90;;;;;;5014576;28;20034;-79
2021/12/03 08:39:43;;;;;;;9.93;3.40;;;2.30;99.90;;;;;;5014756;28;20022;-82
2021/12/03 08:42:11;;;;;;;6.03;3.20;;;2.30;99.90;;;;;;5014650;28;20469;-81
2021/12/03 08:44:37;;;;;;;6.93;3.30;;;2.30;99.90;;;;;;5015248;28;20032;-82
2021/12/03 08:47:07;;;;;;;8.33;3.27;;;2.40;99.90;;;;;;5014725;28;20405;-80
2021/12/03 08:49:44;;;;;;;7.77;3.10;;;2.40;99.90;;;;;;5014732;28;20026;-82
2021/12/03 08:54:55;;;;;;;6.20;2.30;;;2.40;99.90;;;;;;5015944;28;20076;-89
2021/12/03 08:57:24;;;;;;;5.43;2.57;;;2.40;99.90;;;;;;5014494;28;20123;-85
2021/12/03 08:59:56;;;;;;;8.70;2.87;;;2.50;99.90;;;;;;5015895;28;20022;-88
2021/12/03 09:02:22;;;;;;;6.47;2.70;;;2.50;99.90;;;;;;5007447;28;20088;-89
2021/12/03 09:04:49;;;;;;;7.77;2.93;;;2.50;99.90;;;;;;5024093;28;20062;-88
2021/12/03 09:07:15;;;;;;;10.70;3.10;;;2.60;99.90;;;;;;5013962;28;20034;-88
2021/12/03 09:09:41;;;;;;;4.40;2.67;;;2.60;99.90;;;;;;5009572;28;20064;-86
2021/12/03 09:12:07;;;;;;;7.93;3.23;;;2.70;99.90;;;;;;5013603;28;20454;-81
2021/12/03 09:14:43;;;;;;;5.10;2.90;;;2.70;99.90;;;;;;5007441;28;20030;-88
2021/12/03 09:22:40;;;;;;;8.50;3.17;;;2.80;99.90;;;;;;5006552;28;20030;-81
2021/12/03 09:25:09;;;;;;;7.43;4.00;;;2.80;99.90;;;;;;5009585;28;20497;-81
2021/12/03 09:27:36;;;;;;;7.43;3.60;;;2.90;99.90;;;;;;5007383;28;20030;-80
2021/12/03 09:30:05;;;;;;;8.00;3.93;;;2.70;99.90;;;;;;5000190;28;20443;-82
2021/12/03 09:32:32;;;;;;;7.97;4.00;;;2.80;99.90;;;;;;5010665;28;20025;-82
2021/12/03 09:34:59;;;;;;;11.53;3.90;;;2.70;99.90;;;;;;5004771;28;20033;-83
2021/12/03 09:37:25;;;;;;;7.17;3.73;;;2.70;99.90;;;;;;5008881;28;20057;-83
2021/12/03 09:39:52;;;;;;;8.17;3.43;;;2.80;99.90;;;;;;5008828;28;20029;-81
2021/12/03 09:42:19;;;;;;;7.70;3.20;;;2.70;99.90;;;;;;5004692;28;20062;-84
2021/12/03 09:44:46;;;;;;;8.77;3.43;;;2.80;99.90;;;;;;5008977;28;20017;-83
2021/12/03 09:47:17;;;;;;;8.67;3.50;;;2.90;99.90;;;;;;5007378;28;20076;-85
2021/12/03 09:49:44;;;;;;;9.03;4.57;;;2.90;99.90;;;;;;5003842;28;20030;-82
2021/12/03 09:54:51;;;;;;;6.83;3.77;;;3.00;99.90;;;;;;5010794;28;20025;-84
2021/12/03 10:03:13;;;;;;;8.20;3.87;;;3.00;99.90;;;;;;5013975;28;20040;-82
2021/12/03 10:09:45;;;;;;;8.97;3.43;;;3.10;99.60;;;;;;5014837;28;20414;-83
2021/12/03 10:14:37;;;;;;;7.97;3.60;;;3.30;99.40;;;;;;5029253;28;20032;-82
2021/12/03 10:20:21;;;;;;;8.53;3.33;;;3.40;99.10;;;;;;5008836;28;20026;-82
2021/12/03 10:34:10;;;;;;;8.20;3.80;;;3.40;99.60;;;;;;5016674;28;20074;-82
2021/12/03 12:03:43;;;;;;;5.23;2.70;;;3.90;96.00;;;;;;5004134;28;20358;-83
2021/12/03 12:13:30;;;;;;;3.70;2.23;;;4.00;96.00;;;;;;4967846;28;20043;-84
2021/12/03 12:20:26;;;;;;;3.27;2.40;;;4.00;94.70;;;;;;5016482;28;20172;-83
2021/12/03 12:23:52;;;;;;;5.27;2.40;;;4.10;94.90;;;;;;5013811;28;20041;-84
2021/12/03 12:34:11;;;;;;;4.30;2.77;;;4.10;94.60;;;;;;5024620;28;20029;-84
2021/12/03 13:21:46;;;;;;;4.87;2.90;;;4.20;96.00;;;;;;5022036;28;20044;-84
2021/12/03 14:00:13;;;;;;;6.00;3.27;;;4.50;95.80;;;;;;5016406;28;20535;-84
2021/12/03 14:31:56;;;;;;;6.33;2.93;;;4.30;95.10;;;;;;5008900;28;20097;-85
2021/12/03 14:43:05;;;;;;;6.63;2.60;;;4.20;95.00;;;;;;5006395;28;20037;-82
2021/12/03 14:45:46;;;;;;;5.93;2.60;;;4.20;95.00;;;;;;5014241;28;20509;-82
2021/12/03 14:51:09;;;;;;;;;;;4.10;95.00;;;;;;5025263;28;20073;-83
2021/12/03 14:53:43;;;;;;;5.37;2.63;;;4.00;94.70;;;;;;5023179;28;19905;-84
2021/12/03 14:56:12;;;;;;;4.30;2.30;;;4.00;94.90;;;;;;5008345;28;20026;-84
2021/12/03 15:04:49;;;;;;;4.77;2.30;;;4.00;94.90;;;;;;5022002;28;20037;-83
2021/12/03 15:07:22;;;;;;;6.77;2.80;;;4.00;94.90;;;;;;5006880;28;20034;-83
2021/12/03 15:09:50;;;;;;;4.40;2.47;;;4.00;94.90;;;;;;5014654;28;20423;-83
2021/12/03 15:25:46;;;;;;;5.40;2.43;;;3.90;95.70;;;;;;5015202;28;20030;-83
2021/12/03 15:36:06;;;;;;;5.90;2.47;;;3.90;95.00;;;;;;5022755;28;20126;-84
2021/12/03 15:55:08;;;;;;;6.07;2.53;;;3.90;95.50;;;;;;5027401;28;20033;-84
2021/12/03 16:23:49;;;;;;;4.67;2.23;;;3.90;95.60;;;;;;5016876;28;20026;-83
2021/12/03 16:26:17;;;;;;;4.27;2.20;;;3.90;95.40;;;;;;5014065;28;20034;-83
2021/12/03 16:50:53;;;;;;;7.20;2.60;;;3.90;95.10;;;;;;5002125;28;20033;-83
2021/12/03 16:53:24;;;;;;;5.73;2.37;;;3.90;95.10;;;;;;5005129;28;20030;-84
2021/12/03 16:56:03;;;;;;;5.63;2.53;;;3.80;95.00;;;;;;5008770;28;20378;-84
2021/12/03 16:58:29;;;;;;;4.90;2.40;;;3.80;95.30;;;;;;5018089;28;20053;-84
2021/12/03 17:01:04;;;;;;;4.50;2.33;;;3.90;95.00;;;;;;5013169;28;20378;-84
2021/12/03 17:03:42;;;;;;;5.37;2.43;;;3.80;94.90;;;;;;5007711;28;20050;-83
2021/12/03 17:49:33;;;;;;;3.57;2.13;;;3.80;94.70;;;;;;4987551;28;20509;-84
2021/12/03 17:57:36;;;;;;;4.40;2.27;;;3.90;94.40;;;;;;5011870;28;20061;-84
2021/12/03 17:59:52;;;;;;;3.83;2.30;;;3.80;94.80;;;;;;5012337;28;20034;-84
2021/12/03 18:07:27;;;;;;;3.67;2.17;;;3.90;94.60;;;;;;5025526;28;20037;-85
2021/12/03 18:58:46;;;;;;;4.60;2.07;;;3.90;93.60;;;;;;5016577;28;20107;-85
2021/12/03 19:01:13;;;;;;;3.70;1.93;;;3.90;93.50;;;;;;5015795;28;20057;-85
2021/12/03 19:06:27;;;;;;;4.53;1.97;;;3.90;93.30;;;;;;5018752;28;20107;-84
2021/12/03 19:09:02;;;;;;;4.80;1.90;;;3.90;93.30;;;;;;5023414;28;20263;-84
2021/12/03 19:12:18;;;;;;;3.07;1.60;;;3.90;93.30;;;;;;5023698;28;20101;-84
2021/12/03 19:14:13;;;;;;;3.03;2.00;;;3.90;93.10;;;;;;5019186;28;20038;-84
2021/12/03 19:16:39;;;;;;;2.90;1.50;;;4.00;92.90;;;;;;5024939;28;20034;-84
2021/12/03 19:19:05;;;;;;;4.10;1.90;;;4.00;93.20;;;;;;5026410;28;20037;-84
2021/12/03 19:21:43;;;;;;;3.43;1.50;;;4.00;92.90;;;;;;5026097;28;20111;-84
2021/12/03 19:24:11;;;;;;;3.10;1.63;;;4.00;92.70;;;;;;5019221;28;20470;-84
2021/12/03 19:26:43;;;;;;;3.60;1.60;;;4.00;92.60;;;;;;5017944;28;20025;-84
2021/12/03 19:29:11;;;;;;;6.43;1.90;;;4.00;92.40;;;;;;5020937;28;20108;-84
2021/12/03 19:31:38;;;;;;;2.77;1.60;;;4.00;92.30;;;;;;5017284;28;20104;-84
2021/12/03 19:34:04;;;;;;;3.37;2.07;;;4.00;92.30;;;;;;5026233;28;20030;-83
2021/12/03 19:36:32;;;;;;;2.33;1.40;;;4.00;92.70;;;;;;5019983;28;20076;-83
2021/12/03 19:38:59;;;;;;;3.37;1.60;;;4.00;92.30;;;;;;5017241;28;20028;-83
2021/12/03 19:44:09;;;;;;;4.13;1.67;;;4.00;92.10;;;;;;5021378;28;20026;-84
2021/12/03 19:46:37;;;;;;;4.18;1.50;;;4.00;92.10;;;;;;5015764;28;20499;-83
2021/12/03 19:51:50;;;;;;;3.58;1.48;;;4.00;91.60;;;;;;5026381;28;20087;-84
2021/12/03 19:54:20;;;;;;;3.60;1.43;;;4.00;91.80;;;;;;5027832;28;20410;-84
2021/12/03 19:56:46;;;;;;;2.47;1.30;;;4.00;91.50;;;;;;5018763;28;20025;-83
2021/12/03 19:59:12;;;;;;;2.43;1.10;;;4.00;91.20;;;;;;5020067;28;20026;-83
2021/12/03 20:01:39;;;;;;;4.17;1.50;;;4.00;91.40;;;;;;5018294;28;20228;-84
2021/12/03 20:04:07;;;;;;;3.67;1.10;;;4.00;91.30;;;;;;5022455;28;20029;-84
2021/12/03 20:06:34;;;;;;;2.37;1.27;;;4.00;91.30;;;;;;5023796;28;20026;-84
2021/12/03 20:09:02;;;;;;;1.87;1.10;;;4.00;91.00;;;;;;4986932;28;1125854;-84
2021/12/03 20:11:40;;;;;;;2.17;1.13;;;4.00;91.10;;;;;;5026270;28;20037;-84
2021/12/03 20:14:09;;;;;;;2.33;1.20;;;4.10;90.80;;;;;;5023526;28;20033;-84
2021/12/03 20:16:39;;;;;;;2.33;1.17;;;4.10;90.80;;;;;;5028231;28;20458;-84
2021/12/03 20:19:18;;;;;;;2.10;1.00;;;4.10;90.70;;;;;;5017227;28;20033;-85
2021/12/03 20:21:52;;;;;;;2.17;0.97;;;4.10;90.40;;;;;;5013948;28;20349;-84
2021/12/03 20:24:25;;;;;;;2.10;0.93;;;4.10;90.20;;;;;;5022268;28;20172;-84
2021/12/03 20:27:13;;;;;;;1.70;1.20;;;4.20;89.80;;;;;;5003071;28;20348;-84
2021/12/03 20:32:36;;;;;;;3.10;1.30;;;4.30;89.30;;;;;;5022572;28;20028;-84
2021/12/03 20:37:27;;;;;;;3.90;1.20;;;4.30;89.20;;;;;;5017809;28;20091;-83
2021/12/03 20:39:55;;;;;;;6.07;1.90;;;4.30;89.10;;;;;;5018582;28;20107;-84
2021/12/03 20:42:26;;;;;;;1.47;0.93;;;4.30;88.50;;;;;;5021671;28;20029;-84
2021/12/03 20:52:51;;;;;;;2.53;1.10;;;4.40;86.70;;;;;;5005292;28;20032;-84
2021/12/03 20:59:30;;;;;;;2.60;1.10;;;4.40;86.90;;;;;;4986548;28;20225;-84
2021/12/03 21:09:08;;;;;;;1.80;0.97;;;4.50;86.50;;;;;;5005647;28;20140;-84